Time;durP1;ratioP1;P1;durP2;ratioP2;P2;SDS_P1;SDS_P2;PMS_P1;PMS_P2;Temp;Humidity;BMP_temperature;BMP_pressure;BME280_temperature;BME280_humidity;BME280_pressure;Samples;Min_cycle;Max_cycle;Signal;HPM_P1;HPM_P2
2023/07/25 00:01:11;;;;;;;23.05;12.85;;;;;;;;;;5092683;28;20060;-83
2023/07/25 00:03:37;;;;;;;19.55;12.90;;;;;;;;;;5092608;28;20020;-83
2023/07/25 00:06:04;;;;;;;18.45;13.38;;;;;;;;;;5092961;28;20091;-83
2023/07/25 00:08:30;;;;;;;19.65;13.90;;;;;;;;;;5091935;28;20632;-82
2023/07/25 00:10:56;;;;;;;23.35;14.15;;;;;;;;;;5092752;28;20032;-83
2023/07/25 00:13:22;;;;;;;17.70;12.30;;;;;;;;;;5091907;28;20016;-83
2023/07/25 00:15:50;;;;;;;19.95;13.65;;;;;;;;;;5092187;28;20024;-82
2023/07/25 00:18:16;;;;;;;23.73;13.15;;;;;;;;;;5092538;28;20031;-83
2023/07/25 00:20:42;;;;;;;20.67;14.18;;;;;;;;;;5096150;28;20491;-83
2023/07/25 00:23:09;;;;;;;23.63;13.00;;;;;;;;;;5096867;28;20031;-83
2023/07/25 00:25:35;;;;;;;16.25;12.02;;;;;;;;;;5096111;28;20020;-82
2023/07/25 00:28:01;;;;;;;18.48;13.25;;;;;;;;;;5095759;28;20028;-83
2023/07/25 00:30:27;;;;;;;21.02;13.85;;;;;;;;;;5095443;28;20055;-83
2023/07/25 00:32:53;;;;;;;20.65;12.90;;;;;;;;;;5095864;28;20082;-81
2023/07/25 00:35:19;;;;;;;20.13;12.23;;;;;;;;;;5095755;28;20020;-83
2023/07/25 00:37:45;;;;;;;17.50;12.55;;;;;;;;;;5096999;28;20024;-83
2023/07/25 00:40:11;;;;;;;20.98;13.13;;;;;;;;;;5095695;28;20028;-82
2023/07/25 00:42:38;;;;;;;18.35;11.55;;;;;;;;;;5096719;28;20052;-82
2023/07/25 00:45:04;;;;;;;18.88;11.63;;;;;;;;;;5094788;28;20028;-82
2023/07/25 00:47:30;;;;;;;16.67;11.77;;;;;;;;;;5095556;28;20032;-83
2023/07/25 00:49:56;;;;;;;18.55;12.98;;;;;;;;;;5095497;28;20028;-82
2023/07/25 00:52:22;;;;;;;19.45;12.68;;;;;;;;;;5095165;28;20433;-82
2023/07/25 00:54:49;;;;;;;20.95;12.48;;;;;;;;;;5095503;28;20031;-82
2023/07/25 00:57:20;;;;;;;18.17;12.63;;;;;;;;;;5094500;28;20024;-82
2023/07/25 00:59:46;;;;;;;19.80;12.80;;;;;;;;;;5095452;28;20073;-83
2023/07/25 01:02:14;;;;;;;17.33;11.88;;;;;;;;;;5095264;28;20081;-81
2023/07/25 01:04:40;;;;;;;19.40;11.45;;;;;;;;;;5095012;28;20035;-81
2023/07/25 01:07:06;;;;;;;15.27;12.05;;;;;;;;;;5095250;28;20031;-82
2023/07/25 01:09:37;;;;;;;17.02;13.27;;;;;;;;;;5096034;28;20054;-83
2023/07/25 01:12:04;;;;;;;19.25;13.63;;;;;;;;;;5086214;28;20024;-81
2023/07/25 01:14:31;;;;;;;17.55;12.15;;;;;;;;;;5076304;28;20025;-82
2023/07/25 01:16:59;;;;;;;22.25;13.43;;;;;;;;;;5074842;28;20021;-82
2023/07/25 01:19:28;;;;;;;18.10;12.45;;;;;;;;;;5074426;28;20060;-82
2023/07/25 01:21:55;;;;;;;23.35;12.63;;;;;;;;;;5074746;28;20395;-82
2023/07/25 01:24:21;;;;;;;21.27;13.93;;;;;;;;;;5074644;28;20032;-81
2023/07/25 01:26:47;;;;;;;21.42;13.63;;;;;;;;;;5074455;28;20025;-82
2023/07/25 01:29:13;;;;;;;20.42;13.38;;;;;;;;;;5075448;28;20097;-83
2023/07/25 01:31:39;;;;;;;27.65;14.05;;;;;;;;;;5074708;28;20047;-83
2023/07/25 01:34:05;;;;;;;20.65;12.65;;;;;;;;;;5074059;28;20112;-82
2023/07/25 01:36:31;;;;;;;22.88;13.30;;;;;;;;;;5075716;28;20031;-82
2023/07/25 01:38:57;;;;;;;21.00;12.80;;;614.60;2432.00;;;;;;5075551;28;20097;-83
2023/07/25 01:41:23;;;;;;;22.55;14.43;;;614.60;2432.00;;;;;;5074069;28;20445;-82
2023/07/25 01:43:48;;;;;;;17.85;13.35;;;614.50;2432.00;;;;;;5075250;28;20029;-83
2023/07/25 01:46:14;;;;;;;20.02;13.57;;;614.60;2432.00;;;;;;5074057;28;20028;-83
2023/07/25 01:48:40;;;;;;;23.38;13.82;;;614.60;2432.00;;;;;;5074364;28;20028;-83
2023/07/25 01:51:08;;;;;;;24.63;13.70;;;589.70;2432.00;;;;;;5075060;28;20488;-82
2023/07/25 01:53:34;;;;;;;17.20;13.18;;;614.50;2432.00;;;;;;5073681;28;20035;-82
2023/07/25 01:56:00;;;;;;;24.70;14.13;;;614.60;2432.00;;;;;;5075419;28;20024;-82
2023/07/25 01:58:25;;;;;;;23.83;14.25;;;614.60;2432.00;;;;;;5074012;28;20178;-83
2023/07/25 02:00:59;;;;;;;19.85;13.50;;;614.60;2432.00;;;;;;5080713;28;20008;-83
2023/07/25 02:03:26;;;;;;;18.73;12.68;;;614.50;2432.00;;;;;;5090357;28;20036;-83
2023/07/25 02:05:52;;;;;;;25.25;14.23;;;614.50;2432.00;;;;;;5073889;28;20115;-81
2023/07/25 02:08:18;;;;;;;21.08;12.98;;;589.60;2432.00;;;;;;5073604;28;20052;-82
2023/07/25 02:10:44;;;;;;;20.13;13.82;;;589.50;2432.00;;;;;;5073539;28;20048;-82
2023/07/25 02:13:09;;;;;;;24.00;15.15;;;589.40;2432.00;;;;;;5074753;28;20100;-82
2023/07/25 02:15:37;;;;;;;18.38;14.00;;;589.50;2432.00;;;;;;5073428;28;20441;-83
2023/07/25 02:18:03;;;;;;;21.73;13.20;;;589.40;2432.00;;;;;;5073566;28;20028;-83
2023/07/25 02:20:32;;;;;;;20.77;13.85;;;589.60;2432.00;;;;;;5074751;28;20032;-83
2023/07/25 02:22:58;;;;;;;18.77;12.90;;;589.50;2432.00;;;;;;5073203;28;20020;-83
2023/07/25 02:25:28;;;;;;;22.67;13.25;;;589.00;2432.00;;;;;;5074639;28;20024;-84
2023/07/25 02:27:53;;;;;;;21.75;13.98;;;589.50;2432.00;;;;;;5073277;28;20054;-83
2023/07/25 02:30:21;;;;;;;17.95;12.90;;;589.30;2432.00;;;;;;5072981;28;20365;-82
2023/07/25 02:32:47;;;;;;;18.35;12.60;;;589.50;2432.00;;;;;;5073232;28;20024;-84
2023/07/25 02:35:14;;;;;;;21.02;13.35;;;589.40;2432.00;;;;;;5072886;28;20029;-82
2023/07/25 02:37:43;;;;;;;25.70;13.82;;;589.60;2432.00;;;;;;5073248;28;20093;-83
2023/07/25 02:40:09;;;;;;;21.17;13.63;;;589.60;2432.00;;;;;;5073181;28;20119;-82
2023/07/25 02:42:35;;;;;;;20.00;12.30;;;589.50;2432.00;;;;;;5072975;28;20115;-82
2023/07/25 02:45:02;;;;;;;20.20;13.90;;;589.50;2432.00;;;;;;5073053;28;20025;-83
2023/07/25 02:47:27;;;;;;;22.92;14.38;;;589.40;2432.00;;;;;;5073268;28;20028;-83
2023/07/25 02:49:53;;;;;;;19.95;13.57;;;589.30;2432.00;;;;;;5072615;28;20389;-82
2023/07/25 02:52:19;;;;;;;19.40;13.02;;;589.30;2432.00;;;;;;5073099;28;20031;-83
2023/07/25 02:54:45;;;;;;;22.27;13.82;;;589.50;2432.00;;;;;;5072688;28;20029;-82
2023/07/25 02:57:10;;;;;;;21.75;12.93;;;589.50;2432.00;;;;;;5073662;28;20025;-83
2023/07/25 02:59:36;;;;;;;23.52;14.55;;;589.60;2432.00;;;;;;5072923;28;20033;-82
2023/07/25 03:02:02;;;;;;;19.33;12.85;;;589.60;2432.00;;;;;;5073070;28;20025;-82
2023/07/25 03:04:29;;;;;;;19.67;13.63;;;589.40;2432.00;;;;;;5072641;28;20035;-80
2023/07/25 03:06:55;;;;;;;19.67;14.00;;;589.40;2432.00;;;;;;5072517;28;20029;-82
2023/07/25 03:09:21;;;;;;;20.40;13.25;;;589.50;2432.00;;;;;;5072353;28;20503;-81
2023/07/25 03:11:48;;;;;;;20.77;12.68;;;589.50;2432.00;;;;;;5073053;28;20468;-81
2023/07/25 03:14:14;;;;;;;22.90;13.48;;;589.60;2432.00;;;;;;5072937;28;20108;-82
2023/07/25 03:16:40;;;;;;;24.70;13.00;;;589.70;2432.00;;;;;;5072655;28;20074;-83
2023/07/25 03:19:06;;;;;;;21.40;13.45;;;614.40;2432.00;;;;;;5072448;28;20047;-82
2023/07/25 03:21:32;;;;;;;18.73;13.32;;;589.50;2432.00;;;;;;5072598;28;20056;-82
2023/07/25 03:23:57;;;;;;;23.42;13.98;;;589.30;2432.00;;;;;;5072574;28;20028;-83
2023/07/25 03:26:23;;;;;;;18.80;12.43;;;589.10;2432.00;;;;;;5073958;28;20427;-81
2023/07/25 03:28:49;;;;;;;20.65;12.45;;;589.20;2432.00;;;;;;5075042;28;20029;-81
2023/07/25 03:31:15;;;;;;;24.80;14.35;;;589.20;2432.00;;;;;;5074245;28;20383;-82
2023/07/25 03:33:40;;;;;;;20.33;13.27;;;589.10;2432.00;;;;;;5073878;28;20036;-82
2023/07/25 03:36:07;;;;;;;19.05;13.35;;;589.20;2432.00;;;;;;5072392;28;20134;-81
2023/07/25 03:38:33;;;;;;;20.30;13.80;;;588.90;2432.00;;;;;;5072324;28;20029;-81
2023/07/25 03:40:59;;;;;;;18.15;12.35;;;589.10;2432.00;;;;;;5072432;28;20050;-81
2023/07/25 03:43:24;;;;;;;19.63;12.85;;;589.20;2432.00;;;;;;5072607;28;20116;-81
2023/07/25 03:45:50;;;;;;;19.02;12.27;;;589.20;2432.00;;;;;;5072255;28;20448;-81
2023/07/25 03:48:16;;;;;;;19.33;12.77;;;589.40;2432.00;;;;;;5072325;28;20060;-82
2023/07/25 03:50:42;;;;;;;17.63;13.02;;;589.20;2432.00;;;;;;5072360;28;20032;-81
2023/07/25 03:53:08;;;;;;;18.45;12.43;;;589.40;2432.00;;;;;;5072024;28;20495;-82
2023/07/25 03:55:33;;;;;;;19.48;12.55;;;589.10;2432.00;;;;;;5076482;28;20032;-82
2023/07/25 03:57:59;;;;;;;21.90;12.55;;;589.10;2432.00;;;;;;5086626;28;20058;-81
2023/07/25 04:00:25;;;;;;;15.40;12.68;;;589.20;2432.00;;;;;;5096308;28;20468;-81
2023/07/25 04:02:51;;;;;;;20.08;13.35;;;589.20;2432.00;;;;;;5096532;28;20028;-81
2023/07/25 04:05:16;;;;;;;18.33;13.00;;;589.00;2432.00;;;;;;5096521;28;20108;-81
2023/07/25 04:07:42;;;;;;;23.92;13.18;;;589.10;2432.00;;;;;;5096266;28;20028;-81
2023/07/25 04:10:08;;;;;;;24.20;12.77;;;588.80;2432.00;;;;;;5096101;28;20055;-82
2023/07/25 04:12:34;;;;;;;21.13;13.95;;;588.80;2432.00;;;;;;5096737;28;20479;-81
2023/07/25 04:15:00;;;;;;;24.40;12.82;;;589.00;2432.00;;;;;;5096632;28;20072;-82
2023/07/25 04:17:26;;;;;;;20.13;12.93;;;564.10;2432.00;;;;;;5097236;28;20024;-81
2023/07/25 04:19:51;;;;;;;21.42;13.70;;;588.80;2432.00;;;;;;5097148;28;20032;-82
2023/07/25 04:22:17;;;;;;;17.60;12.40;;;589.00;2432.00;;;;;;5096921;28;20375;-81
2023/07/25 04:24:43;;;;;;;23.02;14.18;;;589.00;2432.00;;;;;;5096741;28;20031;-81
2023/07/25 04:27:09;;;;;;;19.48;13.00;;;589.20;2432.00;;;;;;5097960;28;20056;-81
2023/07/25 04:29:34;;;;;;;21.50;12.98;;;589.10;2432.00;;;;;;5096494;28;20032;-83
2023/07/25 04:32:00;;;;;;;16.63;12.02;;;589.10;2432.00;;;;;;5096841;28;20110;-81
2023/07/25 04:34:26;;;;;;;21.23;12.35;;;589.20;2432.00;;;;;;5095965;28;20028;-80
2023/07/25 04:36:52;;;;;;;18.88;13.10;;;589.10;2432.00;;;;;;5096215;28;20031;-81
2023/07/25 04:39:18;;;;;;;19.45;12.88;;;589.10;2432.00;;;;;;5097179;28;20080;-82
2023/07/25 04:41:44;;;;;;;21.45;12.88;;;589.00;2432.00;;;;;;5096569;28;20024;-82
2023/07/25 04:44:10;;;;;;;21.45;14.45;;;589.00;2432.00;;;;;;5095902;28;20496;-82
2023/07/25 04:46:36;;;;;;;27.20;12.20;;;589.00;2432.00;;;;;;5097072;28;20024;-81
2023/07/25 04:49:02;;;;;;;23.90;12.73;;;589.20;2432.00;;;;;;5095692;28;20028;-81
2023/07/25 04:51:27;;;;;;;22.70;12.30;;;589.00;2432.00;;;;;;5097562;28;20028;-81
2023/07/25 04:53:53;;;;;;;19.25;13.07;;;589.10;2432.00;;;;;;5096308;28;20027;-82
2023/07/25 04:56:19;;;;;;;23.73;12.88;;;589.40;2432.00;;;;;;5101322;28;20011;-79
2023/07/25 04:58:45;;;;;;;30.38;13.20;;;589.60;2432.00;;;;;;5111367;28;20101;-81
2023/07/25 05:01:12;;;;;;;23.17;13.57;;;614.40;2432.00;;;;;;5096084;28;20398;-82
2023/07/25 05:03:38;;;;;;;22.85;12.98;;;614.60;2432.00;;;;;;5095672;28;20460;-82
2023/07/25 05:06:04;;;;;;;27.60;13.27;;;614.70;2432.00;;;;;;5095363;28;20028;-83
2023/07/25 05:08:29;;;;;;;26.05;12.95;;;614.80;2432.00;;;;;;5094937;28;20377;-82
2023/07/25 05:10:55;;;;;;;24.77;12.95;;;614.80;2432.00;;;;;;5094830;28;20089;-81
2023/07/25 05:13:21;;;;;;;22.70;13.38;;;614.70;2432.00;;;;;;5095151;28;20021;-82
2023/07/25 05:15:47;;;;;;;22.92;13.32;;;614.60;2432.00;;;;;;5094914;28;20490;-81
2023/07/25 05:18:13;;;;;;;32.83;14.52;;;614.60;2432.00;;;;;;5094827;28;20050;-81
2023/07/25 05:20:38;;;;;;;19.15;12.88;;;614.60;2432.00;;;;;;5095019;28;20070;-83
2023/07/25 05:23:06;;;;;;;25.38;15.00;;;614.70;2432.00;;;;;;5094793;28;20031;-81
2023/07/25 05:25:31;;;;;;;32.13;22.10;;;614.70;2432.00;;;;;;5094632;28;20046;-81
2023/07/25 05:27:57;;;;;;;24.15;17.10;;;614.70;2432.00;;;;;;5096083;28;20448;-84
2023/07/25 05:30:23;;;;;;;25.65;16.90;;;614.70;2432.00;;;;;;5094467;28;20063;-81
2023/07/25 05:32:49;;;;;;;20.88;13.07;;;614.70;2432.00;;;;;;5094714;28;20452;-81
2023/07/25 05:35:16;;;;;;;28.77;14.32;;;614.40;2432.00;;;;;;5094697;28;20028;-81
2023/07/25 05:37:41;;;;;;;23.30;13.88;;;614.80;2432.00;;;;;;5094437;28;20430;-81
2023/07/25 05:40:07;;;;;;;27.13;13.48;;;615.00;2432.00;;;;;;5094667;28;20028;-81
2023/07/25 05:42:33;;;;;;;24.30;13.95;;;615.10;2432.00;;;;;;5094486;28;20024;-83
2023/07/25 05:45:00;;;;;;;20.58;14.32;;;615.20;2432.00;;;;;;5094146;28;20032;-83
2023/07/25 05:47:26;;;;;;;20.65;12.18;;;;;;;;;;5094376;28;20035;-82
2023/07/25 05:49:52;;;;;;;19.73;14.00;;;640.30;2432.00;;;;;;5095515;28;20035;-83
2023/07/25 05:52:18;;;;;;;21.20;13.77;;;;;;;;;;5094001;28;20024;-84
2023/07/25 05:54:44;;;;;;;21.63;16.02;;;;;;;;;;5094370;28;20043;-83
2023/07/25 05:57:10;;;;;;;25.30;14.48;;;;;;;;;;5094187;28;20028;-82
2023/07/25 05:59:37;;;;;;;25.55;14.90;;;;;;;;;;5093961;28;20133;-83
2023/07/25 06:02:05;;;;;;;24.08;14.13;;;;;;;;;;5095664;28;20021;-82
2023/07/25 06:04:31;;;;;;;23.73;14.15;;;;;;;;;;5095372;28;20414;-83
2023/07/25 06:06:57;;;;;;;26.90;13.40;;;;;;;;;;5093798;28;20020;-82
2023/07/25 06:09:24;;;;;;;19.83;12.95;;;;;;;;;;5093691;28;20480;-82
2023/07/25 06:11:50;;;;;;;17.20;11.40;;;;;;;;;;5094075;28;20025;-83
2023/07/25 06:14:16;;;;;;;18.95;12.05;;;;;;;;;;5093588;28;20027;-82
2023/07/25 06:16:42;;;;;;;22.58;12.50;;;;;;;;;;5093548;28;20415;-81
2023/07/25 06:19:08;;;;;;;19.13;11.48;;;;;;;;;;5093906;28;20118;-79
2023/07/25 06:21:34;;;;;;;17.95;10.98;;;;;;;;;;5094064;28;20019;-81
2023/07/25 06:24:00;;;;;;;21.23;11.43;;;;;;;;;;5093860;28;20017;-82
2023/07/25 06:26:26;;;;;;;20.05;10.63;;;;;;;;;;5093541;28;20468;-82
2023/07/25 06:28:53;;;;;;;22.88;11.85;;;;;;;;;;5092988;28;20024;-82
2023/07/25 06:31:18;;;;;;;18.88;10.70;;;691.60;2432.00;;;;;;5095327;28;20384;-81
2023/07/25 06:33:44;;;;;;;23.42;10.52;;;;;;;;;;5093184;28;20028;-79
2023/07/25 06:36:11;;;;;;;16.10;10.60;;;;;;;;;;5093358;28;20020;-79
2023/07/25 06:38:37;;;;;;;21.33;10.98;;;;;;;;;;5093423;28;20130;-79
2023/07/25 06:41:03;;;;;;;18.92;11.02;;;;;;;;;;5093288;28;20024;-78
2023/07/25 06:43:29;;;;;;;20.58;11.88;;;;;;;;;;5093174;28;20028;-80
2023/07/25 06:45:55;;;;;;;19.38;10.75;;;;;;;;;;5089936;28;20103;-80
2023/07/25 06:48:21;;;;;;;19.10;10.18;;;;;;;;;;5094375;28;20103;-80
2023/07/25 06:50:48;;;;;;;17.80;10.70;;;;;;;;;;5093047;28;20028;-79
2023/07/25 06:53:14;;;;;;;17.45;10.98;;;;;;;;;;5093204;28;20028;-79
2023/07/25 06:55:40;;;;;;;16.38;10.35;;;;;;;;;;5092852;28;20107;-80
2023/07/25 06:58:06;;;;;;;16.88;10.30;;;;;;;;;;5080004;28;20020;-80
2023/07/25 07:00:37;;;;;;;18.90;11.02;;;;;;;;;;5073463;28;20062;-81
2023/07/25 07:03:04;;;;;;;16.27;9.15;;;;;;;;;;5073390;28;20456;-80
2023/07/25 07:05:31;;;;;;;21.15;9.85;;;;;;;;;;5073529;28;20028;-80
2023/07/25 07:07:57;;;;;;;17.02;10.05;;;;;;;;;;5074109;28;20052;-81
2023/07/25 07:10:23;;;;;;;24.45;9.82;;;;;;;;;;5072424;28;20098;-80
2023/07/25 07:12:50;;;;;;;20.58;9.93;;;;;;;;;;5073155;28;20020;-80
2023/07/25 07:15:16;;;;;;;18.58;9.25;;;;;;;;;;5073298;28;20028;-79
2023/07/25 07:17:42;;;;;;;19.38;9.98;;;;;;;;;;5072826;28;20013;-81
2023/07/25 07:20:09;;;;;;;20.20;9.95;;;;;;;;;;5074150;28;20040;-80
2023/07/25 07:22:35;;;;;;;16.52;9.40;;;;;;;;;;5075518;28;20025;-83
2023/07/25 07:25:01;;;;;;;18.15;10.15;;;;;;;;;;5073914;28;20054;-80
2023/07/25 07:27:28;;;;;;;17.55;10.00;;;;;;;;;;5077387;28;20024;-81
2023/07/25 07:29:54;;;;;;;16.75;9.50;;;;;;;;;;5072783;28;20036;-82
2023/07/25 07:32:20;;;;;;;16.70;10.23;;;;;;;;;;5073847;28;20025;-81
2023/07/25 07:34:46;;;;;;;16.13;8.88;;;;;;;;;;5077379;28;20043;-82
2023/07/25 07:37:12;;;;;;;16.48;8.15;;;;;;;;;;5081090;28;20025;-83
2023/07/25 07:39:39;;;;;;;14.43;8.65;;;768.60;2432.00;;;;;;5077819;28;20028;-84
2023/07/25 07:42:05;;;;;;;17.27;9.05;;;768.60;2432.00;;;;;;5078911;28;20452;-84
2023/07/25 07:44:31;;;;;;;18.58;8.77;;;768.90;2432.00;;;;;;5076326;28;20031;-83
2023/07/25 07:46:56;;;;;;;18.58;9.20;;;768.80;2432.00;;;;;;5074272;28;20046;-86
2023/07/25 07:49:23;;;;;;;23.92;8.43;;;;;;;;;;5074470;28;20029;-84
2023/07/25 07:51:49;;;;;;;19.27;9.15;;;;;;;;;;5076057;28;20021;-84
2023/07/25 07:54:15;;;;;;;19.90;9.02;;;;;;;;;;5074771;28;20464;-85
2023/07/25 07:56:40;;;;;;;21.10;9.45;;;794.20;2432.00;;;;;;5077343;28;20028;-83
2023/07/25 07:59:07;;;;;;;16.15;8.32;;;;;;;;;;5081629;28;20021;-84
2023/07/25 08:01:33;;;;;;;19.58;9.80;;;;;;;;;;5093027;28;20056;-84
2023/07/25 08:04:00;;;;;;;14.35;9.48;;;;;;;;;;5082962;28;20084;-85
2023/07/25 08:06:28;;;;;;;22.05;9.55;;;;;;;;;;5098152;28;20107;-84
2023/07/25 08:08:54;;;;;;;18.00;9.30;;;;;;;;;;5111551;28;20048;-85
2023/07/25 08:11:20;;;;;;;17.60;9.90;;;;;;;;;;5109248;28;20040;-83
2023/07/25 08:13:46;;;;;;;17.88;9.23;;;;;;;;;;5113890;28;20031;-84
2023/07/25 08:16:12;;;;;;;21.63;8.70;;;;;;;;;;5096424;28;20460;-85
2023/07/25 08:18:38;;;;;;;18.50;9.90;;;;;;;;;;5092421;28;20103;-87
2023/07/25 08:21:05;;;;;;;14.73;7.90;;;;;;;;;;5092765;28;20119;-83
2023/07/25 08:23:31;;;;;;;19.98;8.77;;;;;;;;;;5093078;28;20125;-83
2023/07/25 08:25:57;;;;;;;20.45;10.00;;;;;;;;;;5092569;28;20051;-84
2023/07/25 08:28:23;;;;;;;15.93;8.50;;;845.00;2380.80;;;;;;5092506;28;20070;-82
2023/07/25 08:30:58;;;;;;;17.33;8.57;;;;;;;;;;5092090;28;20044;-83
2023/07/25 08:33:25;;;;;;;14.55;9.10;;;;;;;;;;5092159;28;20353;-82
2023/07/25 08:35:52;;;;;;;18.40;8.48;;;;;;;;;;5092154;28;20043;-83
2023/07/25 08:38:18;;;;;;;19.98;9.75;;;;;;;;;;5092083;28;20020;-82
2023/07/25 08:40:47;;;;;;;15.02;8.43;;;;;;;;;;5094131;28;20016;-81
2023/07/25 08:43:13;;;;;;;13.90;7.68;;;;;;;;;;5096020;28;20034;-83
2023/07/25 08:45:41;;;;;;;14.15;7.78;;;;;;;;;;5095570;28;20020;-84
2023/07/25 08:48:12;;;;;;;13.40;7.20;;;;;;;;;;5095511;28;20028;-85
2023/07/25 08:50:39;;;;;;;15.98;7.53;;;;;;;;;;5095727;28;20513;-82
2023/07/25 08:53:11;;;;;;;14.30;7.75;;;;;;;;;;5095928;28;20024;-84
2023/07/25 08:55:38;;;;;;;13.18;7.63;;;;;;;;;;5093427;28;20031;-82
2023/07/25 08:58:07;;;;;;;16.10;9.57;;;;;;;;;;5096004;28;20047;-85
2023/07/25 09:00:34;;;;;;;16.30;8.32;;;;;;;;;;5095440;28;20464;-81
2023/07/25 09:03:00;;;;;;;16.38;9.88;;;;;;;;;;5095151;28;20024;-80
2023/07/25 09:05:26;;;;;;;20.83;14.32;;;;;;;;;;5095281;28;20019;-83
2023/07/25 09:07:58;;;;;;;20.38;10.30;;;;;;;;;;5095220;28;20016;-82
2023/07/25 09:10:24;;;;;;;15.45;8.40;;;;;;;;;;5094962;28;20073;-81
2023/07/25 09:12:51;;;;;;;17.10;8.10;;;;;;;;;;5094924;28;20063;-82
2023/07/25 09:15:17;;;;;;;18.98;8.52;;;;;;;;;;5094651;28;20066;-81
2023/07/25 09:17:43;;;;;;;12.57;7.60;;;;;;;;;;5094843;28;20476;-83
2023/07/25 09:20:09;;;;;;;16.30;7.63;;;;;;;;;;5094869;28;20406;-82
2023/07/25 09:22:36;;;;;;;17.17;8.52;;;;;;;;;;5095514;28;20016;-80
2023/07/25 09:25:08;;;;;;;20.02;7.78;;;;;;;;;;5094718;28;20024;-80
2023/07/25 09:27:34;;;;;;;18.67;9.85;;;;;;;;;;5094718;28;20023;-80
2023/07/25 09:30:01;;;;;;;14.98;8.23;;;;;;;;;;5095629;28;20479;-79
2023/07/25 09:32:28;;;;;;;18.48;8.02;;;;;;;;;;5088851;28;20268;-79
2023/07/25 09:34:58;;;;;;;17.38;8.93;;;;;;;;;;5094206;28;20471;-80
2023/07/25 09:37:25;;;;;;;15.20;7.90;;;;;;;;;;5093655;28;20030;-78
2023/07/25 09:39:51;;;;;;;14.32;7.63;;;;;;;;;;5094360;28;20027;-81
2023/07/25 09:42:20;;;;;;;22.75;9.15;;;;;;;;;;5090998;28;20033;-80
2023/07/25 09:44:47;;;;;;;16.40;8.93;;;;;;;;;;5091445;28;20376;-79
2023/07/25 09:47:13;;;;;;;20.63;8.70;;;;;;;;;;5108625;28;20020;-80
2023/07/25 09:49:48;;;;;;;14.52;8.43;;;922.30;2022.40;;;;;;5092258;28;20077;-81
2023/07/25 09:52:13;;;;;;;16.63;7.82;;;922.40;2022.40;;;;;;5093324;28;20020;-81
2023/07/25 09:54:39;;;;;;;15.27;6.85;;;922.30;2022.40;;;;;;5107994;28;20024;-80
2023/07/25 09:57:06;;;;;;;12.95;7.03;;;922.40;1996.80;;;;;;5093481;28;20046;-78
2023/07/25 09:59:32;;;;;;;17.02;6.55;;;;;;;;;;5094849;28;20031;-79
2023/07/25 10:01:59;;;;;;;19.90;6.75;;;;;;;;;;5095052;28;20027;-82
2023/07/25 10:04:25;;;;;;;12.95;6.78;;;;;;;;;;5094774;28;20070;-80
2023/07/25 10:06:52;;;;;;;14.13;6.88;;;947.70;1971.20;;;;;;5093782;28;20023;-82
2023/07/25 10:09:19;;;;;;;12.02;7.18;;;;;;;;;;5093056;28;20040;-80
2023/07/25 10:11:45;;;;;;;13.38;8.30;;;;;;;;;;5094651;28;20460;-81
2023/07/25 10:14:12;;;;;;;15.50;7.90;;;;;;;;;;5101594;28;20039;-78
2023/07/25 10:16:38;;;;;;;15.55;7.32;;;;;;;;;;5107626;28;20108;-79
2023/07/25 10:19:05;;;;;;;15.88;7.30;;;;;;;;;;5094890;28;20016;-82
2023/07/25 10:21:51;;;;;;;17.13;7.90;;;;;;;;;;5093453;28;20032;-82
2023/07/25 10:24:17;;;;;;;15.63;6.97;;;;;;;;;;5094538;28;20024;-79
2023/07/25 10:26:56;;;;;;;13.30;6.95;;;;;;;;;;5094596;28;20023;-82
2023/07/25 10:29:42;;;;;;;20.27;7.50;;;;;;;;;;5091028;28;20074;-81
2023/07/25 10:32:09;;;;;;;16.77;8.18;;;;;;;;;;5108191;28;20024;-81
2023/07/25 10:34:47;;;;;;;15.00;7.25;;;;;;;;;;5093307;28;20081;-80
2023/07/25 10:37:25;;;;;;;18.92;7.88;;;;;;;;;;5093659;28;20059;-81
2023/07/25 10:40:05;;;;;;;16.90;7.05;;;;;;;;;;5093197;28;20028;-80
2023/07/25 10:42:50;;;;;;;20.40;7.00;;;;;;;;;;5094998;28;20051;-80
2023/07/25 10:45:37;;;;;;;17.15;6.45;;;;;;;;;;5081900;28;20089;-81
2023/07/25 10:48:03;;;;;;;14.27;7.15;;;;;;;;;;5071228;28;20116;-83
2023/07/25 10:50:53;;;;;;;18.73;5.93;;;;;;;;;;5079118;28;20028;-79
2023/07/25 10:53:24;;;;;;;18.20;9.85;;;;;;;;;;5089897;28;20052;-81
2023/07/25 10:55:50;;;;;;;;;;;;;;;;;;5075110;28;20028;-82
2023/07/25 10:58:18;;;;;;;17.45;6.63;;;;;;;;;;5074618;28;19944;-82
2023/07/25 11:00:45;;;;;;;14.60;6.88;;;;;;;;;;5074075;28;20021;-82
2023/07/25 11:03:31;;;;;;;14.95;7.05;;;;;;;;;;5073667;28;20058;-82
2023/07/25 11:06:06;;;;;;;17.35;6.90;;;;;;;;;;5076272;28;20138;-81
2023/07/25 11:08:33;;;;;;;15.00;6.68;;;;;;;;;;5080425;28;20035;-80
2023/07/25 11:11:09;;;;;;;17.63;6.63;;;;;;;;;;5084185;28;20048;-81
2023/07/25 11:13:40;;;;;;;19.98;6.72;;;;;;;;;;5085087;28;20021;-81
2023/07/25 11:16:07;;;;;;;13.63;6.70;;;;;;;;;;5083837;28;20122;-80
2023/07/25 11:18:33;;;;;;;16.58;6.70;;;;;;;;;;5074697;28;20025;-81
2023/07/25 11:21:07;;;;;;;18.60;7.20;;;;;;;;;;5073594;28;20032;-83
2023/07/25 11:23:33;;;;;;;18.98;7.60;;;;;;;;;;5072617;28;20024;-81
2023/07/25 11:26:02;;;;;;;14.50;6.70;;;;;;;;;;5074196;28;20052;-80
2023/07/25 11:28:28;;;;;;;19.00;6.35;;;;;;;;;;5072270;28;20081;-81
2023/07/25 11:30:54;;;;;;;18.63;7.03;;;;;;;;;;5072412;28;20040;-80
2023/07/25 11:33:21;;;;;;;18.02;6.30;;;;;;;;;;5072420;28;20021;-80
2023/07/25 11:35:54;;;;;;;12.50;6.28;;;;;;;;;;5072236;28;20024;-80
2023/07/25 11:38:20;;;;;;;14.52;7.68;;;;;;;;;;5072458;28;20027;-80
2023/07/25 11:40:50;;;;;;;13.65;5.78;;;;;;;;;;5072430;28;20017;-83
2023/07/25 11:43:16;;;;;;;20.10;6.95;;;;;;;;;;5072115;28;20020;-84
2023/07/25 11:45:44;;;;;;;17.05;7.30;;;;;;;;;;5072526;28;20116;-80
2023/07/25 11:48:12;;;;;;;21.35;8.80;;;;;;;;;;5072046;28;20453;-79
2023/07/25 11:50:38;;;;;;;18.02;6.55;;;;;;;;;;5083694;28;20111;-81
2023/07/25 11:53:05;;;;;;;16.63;5.63;;;;;;;;;;5092439;28;20035;-79
2023/07/25 11:55:31;;;;;;;14.70;6.63;;;;;;;;;;5092091;28;20057;-80
2023/07/25 11:58:01;;;;;;;26.20;6.43;;;;;;;;;;5091644;28;20060;-80
2023/07/25 12:00:38;;;;;;;15.57;5.43;;;;;;;;;;5109636;28;20035;-82
2023/07/25 12:03:04;;;;;;;17.25;6.43;;;;;;;;;;5093267;28;20042;-82
2023/07/25 12:05:31;;;;;;;14.98;5.78;;;;;;;;;;5109211;28;20024;-78
2023/07/25 12:08:02;;;;;;;13.30;5.60;;;;;;;;;;5108952;28;20024;-83
2023/07/25 12:10:29;;;;;;;14.10;6.85;;;;;;;;;;5092230;28;20086;-80
2023/07/25 12:12:56;;;;;;;14.85;6.93;;;;;;;;;;5074446;28;20107;-82
2023/07/25 12:15:42;;;;;;;21.52;7.10;;;;;;;;;;5075343;28;20075;-81
2023/07/25 12:18:27;;;;;;;23.52;7.78;;;;;;;;;;5091963;28;20020;-79
2023/07/25 12:20:54;;;;;;;16.92;6.95;;;;;;;;;;5095990;28;20020;-80
2023/07/25 12:23:28;;;;;;;15.23;6.82;;;;;;;;;;5095732;28;20023;-81
2023/07/25 12:25:55;;;;;;;11.30;7.18;;;;;;;;;;5097211;28;20024;-79
2023/07/25 12:28:22;;;;;;;21.52;6.90;;;;;;;;;;5095926;28;20522;-80
2023/07/25 12:30:49;;;;;;;15.50;7.03;;;;;;;;;;5095747;28;20498;-80
2023/07/25 12:33:15;;;;;;;19.67;6.60;;;1024.70;1715.20;;;;;;5095756;28;20426;-80
2023/07/25 12:35:40;;;;;;;20.38;6.40;;;1024.60;1715.20;;;;;;5095831;28;20028;-81
2023/07/25 12:38:06;;;;;;;14.75;6.15;;;1024.60;1740.80;;;;;;5095493;28;20028;-82
2023/07/25 12:40:32;;;;;;;14.57;6.10;;;;;;;;;;5095360;28;20028;-80
2023/07/25 12:42:58;;;;;;;19.58;7.00;;;;;;;;;;5095700;28;20376;-83
2023/07/25 12:45:24;;;;;;;23.25;6.78;;;;;;;;;;5095323;28;20377;-81
2023/07/25 12:47:51;;;;;;;18.00;6.68;;;;;;;;;;5094216;28;20039;-81
2023/07/25 12:50:17;;;;;;;17.75;7.25;;;;;;;;;;5110880;28;20387;-81
2023/07/25 12:52:43;;;;;;;16.67;6.60;;;;;;;;;;5096248;28;20032;-79
2023/07/25 12:55:09;;;;;;;19.50;7.15;;;;;;;;;;5095325;28;20028;-82
2023/07/25 12:57:35;;;;;;;16.75;6.65;;;973.70;1740.80;;;;;;5094237;28;20028;-80
2023/07/25 13:00:01;;;;;;;14.40;5.90;;;;;;;;;;5094514;28;20118;-81
2023/07/25 13:02:28;;;;;;;17.08;6.85;;;;;;;;;;5094602;28;20024;-82
2023/07/25 13:04:54;;;;;;;16.77;6.93;;;;;;;;;;5094523;28;20081;-80
2023/07/25 13:07:20;;;;;;;13.70;5.97;;;;;;;;;;5094480;28;20093;-80
2023/07/25 13:09:46;;;;;;;15.55;6.25;;;;;;;;;;5094075;28;20491;-80
2023/07/25 13:12:12;;;;;;;17.15;7.03;;;;;;;;;;5094169;28;20490;-80
2023/07/25 13:14:38;;;;;;;19.00;6.88;;;;;;;;;;5094447;28;20032;-81
2023/07/25 13:17:04;;;;;;;15.90;7.13;;;;;;;;;;5094961;28;20460;-83
2023/07/25 13:19:30;;;;;;;19.92;8.23;;;;;;;;;;5094985;28;20383;-80
2023/07/25 13:21:57;;;;;;;17.48;7.32;;;;;;;;;;5096122;28;20024;-80
2023/07/25 13:24:23;;;;;;;17.67;7.35;;;;;;;;;;5096090;28;20036;-80
2023/07/25 13:26:49;;;;;;;16.23;7.13;;;;;;;;;;5093907;28;20020;-80